Accueil
METAR-TAF:

METAR-TAF

Aéroports :

Russellville Regional Airport

Russellville, Arkansas, États-Unis

latitude: 35-15-32N, longitude: 093-05-36W, altitude: 123 m

Observation

Le bulletin a été fait il y a 28 minutes, à 08:53 UTC
Vent 3 kt de est
Température 2°C
Humidité 93%
Pression 1017 hPa
Visibilité: 16.1 km
Ciel couvert à une hauteur de 1100 ft

METAR: KRUE 230853Z AUTO 08003KT 10SM OVC011 02/01 A3002 RMK AO2 SLP165 T00170006 58016

Heure: 03:21 (09:21 UTC)


TAF: absent

Observations et prévisions météorologiques de plus de 4000 aéroports (messages METAR et TAF).

Les stations disponibles sont représentées par des disques jaunes et rouges sur la carte.

Passer la souris dessus pour voir le nom de la station.

Cliquer dessus pour voir les observations et prévisions météorologiques.

Pour changer de carte: cliquez sur les boutons verts avec une croix noire pour zoomer, sur le bouton vert avec un tiret pour effectuer un zoom arrière, ou sur les flèches vertes pour les cartes adjacentes.


METAR-TAF: